Fort Lee, NJ (07024)

2:27 AM EST on February 08, 2016 (GMT -0500)
Palisades Park | | Change Station
CLOSE
Current Station
Personal Weather Station
Location: Palisades Park, NJ
Elevation: 115 ft
Nearby Weather Stations

Elev 115 ft 40.84 °N, 74.00 °W | Updated 3 minutes ago

Partly Cloudy
Partly Cloudy
36.7 °F
Feels Like 37 °F
N
2.2
Wind Variable Wind from NNW

Today
High -- | Low -- °F
--% Chance of Precip.
Yesterday
High -- | Low -- °F
Precip. -- in
Pressure 29.83 in
Visibility 10.0 miles
Clouds Clear
Windchill 37 °F
Dew Point 26 °F
Humidity 65%
Rainfall 0.00 in
Snow Depth Not available.
6:59 AM 5:21 PM
Waning Crescent, 0% visible
METAR KTEB 080651Z AUTO 01008KT 10SM CLR 03/M06 A2983 RMK AO2 SLP100 T00281061 TSNO
Pressure 29.83 in
Visibility 10.0 miles
Clouds Clear
Windchill 37 °F
Dew Point 26 °F
Humidity 65%
Rainfall 0.00 in
Snow Depth Not available.
6:59 AM 5:21 PM
Waning Crescent, 0% visible
METAR KTEB 080651Z AUTO 01008KT 10SM CLR 03/M06 A2983 RMK AO2 SLP100 T00281061 TSNO

10-Day Weather Forecast

Almanac

Astronomy

Feb. 08, 2016 Rise Set
Actual Time
Civil Twilight
Nautical Twilight
Astronomical Twilight
Moon
Length of Visible Light
Length of Day
Tomorrow will be .
, % of the Moon is Illuminated

Today's Extremes

State Highs State Lows

Community

WunderPhotos

Upload Photos

1,891,394 photos uploaded!

WunderBlog® & News

Nearby

Air Quality

  Air Quality AQ Index Pollutant
Not available.

Snow Depth

Station Depth Elevation

Earthquake Activity

City Distance Mag. Time & Date
Minimum magnitude displayed is 2.5.

Coastal Water Temperatures

Place Temperature

Stations

Nearby Weather Stations

Station Location Temp. Windchill Dew Point Humidity Wind Precip. Elev Updated Type
                   

Watches & Warnings

There are currently no watches in effect.